Time;durP1;ratioP1;P1;durP2;ratioP2;P2;SDS_P1;SDS_P2;PMS_P1;PMS_P2;Temp;Humidity;BMP_temperature;BMP_pressure;BME280_temperature;BME280_humidity;BME280_pressure;Samples;Min_cycle;Max_cycle;Signal;HPM_P1;HPM_P2
2023/06/02 00:02:29;;;;;;;;;;;;;;;-144.99;97.64;52313.56;5025154;28;20449;-78
2023/06/02 00:04:57;;;;;;;;;;;;;;;-144.99;97.45;52301.34;5025042;28;20034;-77
2023/06/02 00:07:25;;;;;;;;;;;;;;;-144.99;97.48;52342.09;5021934;28;20414;-76
2023/06/02 00:09:52;;;;;;;;;;;;;;;-144.99;97.72;52280.97;5016536;28;19937;-78
2023/06/02 00:12:21;;;;;;;;;;;;;;;-144.99;97.95;52317.66;5013599;28;19961;-78
2023/06/02 00:14:48;;;;;;;;;;;;;;;-144.99;98.44;52315.59;5012967;28;19925;-76
2023/06/02 00:17:16;;;;;;;;;;;;;;;-144.99;98.52;52317.66;5011425;28;19929;-74
2023/06/02 00:19:43;;;;;;;;;;;;;;;-144.99;98.27;52305.41;5014061;28;19929;-72
2023/06/02 00:22:13;;;;;;;;;;;;;;;-144.99;98.46;52333.94;5015841;28;19932;-76
2023/06/02 00:24:42;;;;;;;;;;;;;;;-144.99;100.00;52346.19;5011686;28;20277;-76
2023/06/02 00:27:08;;;;;;;;;;;;;;;-144.99;100.00;52303.38;5024827;28;20368;-77
2023/06/02 00:29:35;;;;;;;;;;;;;;;-144.99;100.00;52305.41;5024187;28;20411;-75
2023/06/02 00:32:03;;;;;;;;;;;;;;;-144.99;100.00;52338.03;5024759;28;20023;-76
2023/06/02 00:34:29;;;;;;;;;;;;;;;-144.99;99.61;52317.66;5026746;28;20016;-76
2023/06/02 00:36:56;;;;;;;;;;;;;;;-144.99;99.71;52362.50;5024311;28;19980;-77
2023/06/02 00:39:23;;;;;;;;;;;;;;;-144.99;99.69;52338.03;5023412;28;19969;-77
2023/06/02 00:41:51;;;;;;;;;;;;;;;-144.99;99.55;52325.81;5025409;28;19968;-74
2023/06/02 00:44:17;;;;;;;;;;;;;;;-144.99;99.92;52293.19;5023483;28;20031;-75
2023/06/02 00:46:44;;;;;;;;;;;;;;;-144.99;99.44;52313.56;5023316;28;19925;-76
2023/06/02 00:49:11;;;;;;;;;;;;;;;-144.99;99.78;52319.69;5025677;28;20281;-77
2023/06/02 00:51:37;;;;;;;;;;;;;;;-144.99;100.00;52311.53;5025691;28;19929;-76
2023/06/02 00:54:05;;;;;;;;;;;;;;;-144.99;99.99;52374.72;5025077;28;19975;-76
2023/06/02 00:56:32;;;;;;;;;;;;;;;-144.99;100.00;52348.22;5023816;28;19929;-78
2023/06/02 00:59:00;;;;;;;;;;;;;;;-144.99;100.00;52329.88;5022380;28;19948;-77
2023/06/02 01:01:29;;;;;;;;;;;;;;;-144.99;100.00;52352.28;5016219;28;19929;-77
2023/06/02 01:03:55;;;;;;;;;;;;;;;-144.99;100.00;52333.94;5014317;28;19990;-76
2023/06/02 01:06:34;;;;;;;;;;;;;;;-144.99;100.00;52309.50;5019441;28;19940;-77
2023/06/02 01:09:02;;;;;;;;;;;;;;;-144.99;100.00;52329.88;5023258;28;19936;-75
2023/06/02 01:11:29;;;;;;;;;;;;;;;-144.99;100.00;52315.59;5025334;28;19987;-77
2023/06/02 01:13:56;;;;;;;;;;;;;;;-144.99;100.00;52342.09;5027756;28;19987;-80
2023/06/02 01:16:26;;;;;;;;;;;;;;;-144.99;100.00;52313.56;5025732;28;19929;-78
2023/06/02 01:18:54;;;;;;;;;;;;;;;-144.99;100.00;52313.56;5015574;28;19932;-78
2023/06/02 01:21:23;;;;;;;;;;;;;;;-144.99;100.00;52358.41;5017832;28;19933;-77
2023/06/02 01:23:52;;;;;;;;;;;;;;;-144.99;100.00;52313.56;5019537;28;20086;-76
2023/06/02 01:26:18;;;;;;;;;;;;;;;-144.99;100.00;52268.72;5019251;28;19952;-79
2023/06/02 01:28:45;;;;;;;;;;;;;;;-144.99;100.00;52317.66;5013391;28;19929;-76
2023/06/02 01:31:13;;;;;;;;;;;;;;;-144.99;100.00;52362.50;5019823;28;20396;-79
2023/06/02 01:33:43;;;;;;;;;;;;;;;-144.99;100.00;52370.63;5018125;28;19933;-78
2023/06/02 01:36:09;;;;;;;;;;;;;;;-144.99;100.00;52340.06;5029218;28;19929;-77
2023/06/02 01:38:38;;;;;;;;;;;;;;;-144.99;100.00;52333.94;5021502;28;19979;-78
2023/06/02 01:41:07;;;;;;;;;;;;;;;-144.99;100.00;52319.69;5016458;28;20456;-77
2023/06/02 01:43:35;;;;;;;;;;;;;;;-144.99;100.00;52317.66;5016651;28;19929;-77
2023/06/02 01:46:02;;;;;;;;;;;;;;;-144.99;100.00;52344.16;5016975;28;19929;-75
2023/06/02 01:48:29;;;;;;;;;;;;;;;-144.99;100.00;52368.59;5016089;28;19929;-75
2023/06/02 01:50:56;;;;;;;;;;;;;;;-144.99;100.00;52301.34;5014281;28;20496;-75
2023/06/02 01:53:26;;;;;;;;;;;;;;;-144.99;100.00;52317.66;5014181;28;19933;-75
2023/06/02 01:55:52;;;;;;;;;;;;;;;-144.99;100.00;52329.88;5010887;28;19991;-76
2023/06/02 01:58:20;;;;;;;;;;;;;;;-144.99;100.00;52305.41;5012085;28;20542;-74
2023/06/02 02:00:47;;;;;;;;;;;;;;;-144.99;100.00;52325.81;5017083;28;19925;-76
2023/06/02 02:03:14;;;;;;;;;;;;;;;-144.99;100.00;52346.19;5020205;28;19929;-75
2023/06/02 02:05:41;;;;;;;;;;;;;;;-144.99;100.00;52305.41;5019320;28;20012;-76
2023/06/02 02:08:07;;;;;;;;;;;;;;;-144.99;100.00;52325.81;5018443;28;19933;-75
2023/06/02 02:10:34;;;;;;;;;;;;;;;-144.99;100.00;52331.91;5020744;28;20004;-74
2023/06/02 02:13:01;;;;;;;;;;;;;;;-144.99;100.00;52313.56;5016448;28;19951;-74
2023/06/02 02:15:29;;;;;;;;;;;;;;;-144.99;100.00;52303.38;5013738;28;19961;-75
2023/06/02 02:17:56;;;;;;;;;;;;;;;-144.99;100.00;52327.84;5013144;28;19933;-78
2023/06/02 02:20:23;;;;;;;;;;;;;;;-144.99;100.00;52313.56;5011805;28;20652;-77
2023/06/02 02:22:50;;;;;;;;;;;;;;;-144.99;100.00;52366.56;5019674;28;19933;-75
2023/06/02 02:25:16;;;;;;;;;;;;;;;-144.99;100.00;52346.19;5018698;28;20511;-78
2023/06/02 02:27:43;;;;;;;;;;;;;;;-144.99;100.00;52333.94;5019055;28;19929;-79
2023/06/02 02:30:10;;;;;;;;;;;;;;;-144.99;100.00;52329.88;5028667;28;19929;-76
2023/06/02 02:32:39;;;;;;;;;;;;;;;-144.99;100.00;52350.25;5028625;28;19929;-76
2023/06/02 02:35:06;;;;;;;;;;;;;;;-144.99;100.00;52338.03;5019589;28;19924;-75
2023/06/02 02:37:33;;;;;;;;;;;;;;;-144.99;100.00;52325.81;5024102;28;19952;-74
2023/06/02 02:40:00;;;;;;;;;;;;;;;-144.99;100.00;52333.94;5025610;28;19929;-72
2023/06/02 02:42:26;;;;;;;;;;;;;;;-144.99;100.00;52333.94;5027026;28;19929;-72
2023/06/02 02:44:53;;;;;;;;;;;;;;;-144.99;100.00;52346.19;5024768;28;19929;-77
2023/06/02 02:47:20;;;;;;;;;;;;;;;-144.99;100.00;52285.03;5024217;28;19929;-77
2023/06/02 02:49:47;;;;;;;;;;;;;;;-144.99;100.00;52301.34;5025665;28;19932;-76
2023/06/02 02:52:14;;;;;;;;;;;;;;;-144.99;100.00;52342.09;5025575;28;19948;-75
2023/06/02 02:54:41;;;;;;;;;;;;;;;-144.99;100.00;52360.44;5025001;28;19925;-76
2023/06/02 02:57:11;;;;;;;;;;;;;;;-144.99;100.00;52313.56;5014249;28;20047;-73
2023/06/02 02:59:37;;;;;;;;;;;;;;;-144.99;100.00;52319.69;5019003;28;19937;-77
2023/06/02 03:02:05;;;;;;;;;;;;;;;-144.99;100.00;52317.66;5018971;28;20419;-75
2023/06/02 03:04:32;;;;;;;;;;;;;;;-144.99;100.00;52358.41;5018912;28;19933;-76
2023/06/02 03:07:01;;;;;;;;;;;;;;;-144.99;100.00;52309.50;5019915;28;19933;-75
2023/06/02 03:09:27;;;;;;;;;;;;;;;-144.99;100.00;52307.47;5012478;28;20411;-74
2023/06/02 03:11:54;;;;;;;;;;;;;;;-144.99;100.00;52354.34;5016082;28;19983;-76
2023/06/02 03:14:22;;;;;;;;;;;;;;;-144.99;100.00;52342.09;5012518;28;20086;-74
2023/06/02 03:16:52;;;;;;;;;;;;;;;-144.99;100.00;52313.56;5019373;28;19985;-74
2023/06/02 03:19:18;;;;;;;;;;;;;;;-144.99;100.00;52333.94;5012271;28;20362;-74
2023/06/02 03:21:45;;;;;;;;;;;;;;;-144.99;100.00;52354.34;5014722;28;19936;-75
2023/06/02 03:24:14;;;;;;;;;;;;;;;-144.99;100.00;52309.50;5013263;28;20032;-77
2023/06/02 03:26:45;;;;;;;;;;;;;;;-144.99;100.00;52350.25;5014210;28;19929;-75
2023/06/02 03:29:12;;;;;;;;;;;;;;;-144.99;100.00;52346.19;5014440;28;19963;-78
2023/06/02 03:31:39;;;;;;;;;;;;;;;-144.99;100.00;52329.88;5015711;28;19929;-76
2023/06/02 03:34:05;;;;;;;;;;;;;;;-144.99;100.00;52336.00;5013804;28;20112;-73
2023/06/02 03:36:34;;;;;;;;;;;;;;;-144.99;100.00;52354.34;5013151;28;19937;-75
2023/06/02 03:39:02;;;;;;;;;;;;;;;-144.99;100.00;52321.72;5012344;28;19933;-75
2023/06/02 03:41:30;;;;;;;;;;;;;;;-144.99;100.00;52321.72;5012086;28;20306;-71
2023/06/02 03:43:57;;;;;;;;;;;;;;;-144.99;100.00;52340.06;5012899;28;20825;-74
2023/06/02 03:46:23;;;;;;;;;;;;;;;-144.99;100.00;52344.16;5012938;28;19925;-74
2023/06/02 03:48:50;;;;;;;;;;;;;;;-144.99;100.00;52321.72;5011002;28;19983;-73
2023/06/02 03:51:16;;;;;;;;;;;;;;;-144.99;100.00;52333.94;5010440;28;19937;-72
2023/06/02 03:53:43;;;;;;;;;;;;;;;-144.99;100.00;52333.94;5011662;28;20107;-72
2023/06/02 03:56:09;;;;;;;;;;;;;;;-144.99;100.00;52313.56;5013728;28;19933;-74
2023/06/02 03:58:37;;;;;;;;;;;;;;;-144.99;100.00;52321.72;5009126;28;19956;-73
2023/06/02 04:01:04;;;;;;;;;;;;;;;-144.99;100.00;52342.09;5017257;28;20348;-72
2023/06/02 04:03:32;;;;;;;;;;;;;;;-144.99;100.00;52340.06;5021259;28;20388;-72
2023/06/02 04:05:59;;;;;;;;;;;;;;;-144.99;100.00;52293.19;5022368;28;19948;-73
2023/06/02 04:08:25;;;;;;;;;;;;;;;-144.99;100.00;52299.31;5017467;28;20537;-73
2023/06/02 04:10:52;;;;;;;;;;;;;;;-144.99;100.00;52342.09;5012491;28;20544;-72
2023/06/02 04:13:19;;;;;;;;;;;;;;;-144.99;100.00;52311.53;5009671;28;20613;-74
2023/06/02 04:15:47;;;;;;;;;;;;;;;-144.99;100.00;52287.06;5020498;28;19936;-72
2023/06/02 04:18:13;;;;;;;;;;;;;;;-144.99;100.00;52283.00;5022512;28;20047;-72
2023/06/02 04:20:40;;;;;;;;;;;;;;;-144.99;100.00;52321.72;5022848;28;19925;-74
2023/06/02 04:23:07;;;;;;;;;;;;;;;-144.99;100.00;52342.09;5021076;28;19940;-71
2023/06/02 04:25:33;;;;;;;;;;;;;;;-144.99;100.00;52333.94;5019427;28;20016;-75
2023/06/02 04:28:00;;;;;;;;;;;;;;;-144.99;100.00;52301.34;5024319;28;19983;-73
2023/06/02 04:30:27;;;;;;;;;;;;;;;-144.99;100.00;52329.88;5025094;28;20375;-74
2023/06/02 04:32:55;;;;;;;;;;;;;;;-144.99;100.00;52285.03;5024984;28;20434;-74
2023/06/02 04:35:22;;;;;;;;;;;;;;;-144.99;100.00;52297.25;5025853;28;20299;-74
2023/06/02 04:37:48;;;;;;;;;;;;;;;-144.99;100.00;52313.56;5023063;28;20016;-77
2023/06/02 04:40:15;;;;;;;;;;;;;;;-144.99;100.00;52305.41;5025053;28;19952;-76
2023/06/02 04:42:42;;;;;;;;;;;;;;;-144.99;100.00;52317.66;5025494;28;19933;-75
2023/06/02 04:45:11;;;;;;;;;;;;;;;-144.99;100.00;52297.25;5026076;28;19929;-75
2023/06/02 04:47:37;;;;;;;;;;;;;;;-144.99;100.00;52305.41;5026343;28;19931;-74
2023/06/02 04:50:06;;;;;;;;;;;;;;;-144.99;100.00;52317.66;5027574;28;19925;-76
2023/06/02 04:52:34;;;;;;;;;;;;;;;-144.99;100.00;52333.94;5029549;28;20374;-76
2023/06/02 04:55:00;;;;;;;;;;;;;;;-144.99;100.00;52289.13;5029335;28;20020;-76
2023/06/02 04:57:27;;;;;;;;;;;;;;;-144.99;100.00;52321.72;5029207;28;19929;-74
2023/06/02 04:59:53;;;;;;;;;;;;;;;-144.99;100.00;52309.50;5026524;28;20001;-74
2023/06/02 05:02:20;;;;;;;;;;;;;;;-144.99;100.00;52307.47;5021706;28;20461;-78
2023/06/02 05:04:47;;;;;;;;;;;;;;;-144.99;100.00;52276.88;5029693;28;20276;-72
2023/06/02 05:07:15;;;;;;;;;;;;;;;-144.99;100.00;52301.34;5022822;28;20036;-75
2023/06/02 05:09:41;;;;;;;;;;;;;;;-144.99;100.00;52295.22;5022087;28;20058;-75
2023/06/02 05:12:09;;;;;;;;;;;;;;;-144.99;99.81;52297.25;5019017;28;19933;-74
2023/06/02 05:14:37;;;;;;;;;;;;;;;-144.99;99.29;52309.50;4681375;28;10000537;-75
2023/06/02 05:17:04;;;;;;;;;;;;;;;-144.99;98.60;52293.19;5021815;28;19925;-76
2023/06/02 05:19:31;;;;;;;;;;;;;;;-144.99;98.42;52287.06;5025714;28;19928;-75
2023/06/02 05:21:57;;;;;;;;;;;;;;;-144.99;97.12;52297.25;5019119;28;20007;-78
2023/06/02 05:24:25;;;;;;;;;;;;;;;-144.99;96.68;52256.50;5032548;28;19926;-74
2023/06/02 05:26:52;;;;;;;;;;;;;;;-144.99;96.26;52272.81;5020333;28;19929;-75
2023/06/02 05:29:18;;;;;;;;;;;;;;;-144.99;95.99;52258.53;5019496;28;19936;-77
2023/06/02 05:31:45;;;;;;;;;;;;;;;-144.99;98.41;52305.41;5026351;28;19925;-80
2023/06/02 05:34:11;;;;;;;;;;;;;;;-144.99;98.52;52297.25;5023036;28;19933;-75
2023/06/02 05:36:40;;;;;;;;;;;;;;;-144.99;98.25;52309.50;5027101;28;20262;-74
2023/06/02 05:39:06;;;;;;;;;;;;;;;-144.99;97.22;52313.56;5017285;28;19925;-74
2023/06/02 05:41:34;;;;;;;;;;;;;;;-144.99;96.98;52264.66;5022671;28;19925;-80
2023/06/02 05:44:01;;;;;;;;;;;;;;;-144.99;96.80;52295.22;5023030;28;19952;-80
2023/06/02 05:46:29;;;;;;;;;;;;;;;-144.99;97.12;52244.28;5012786;28;20440;-75
2023/06/02 05:48:56;;;;;;;;;;;;;;;-144.99;96.59;52283.00;5025631;28;19929;-75
2023/06/02 05:51:23;;;;;;;;;;;;;;;-144.99;95.71;52303.38;5011072;28;19936;-82
2023/06/02 05:53:50;;;;;;;;;;;;;;;-144.99;95.14;52264.66;5023940;28;19929;-77
2023/06/02 05:56:16;;;;;;;;;;;;;;;-144.99;94.76;52260.56;5023853;28;19936;-75
2023/06/02 05:58:46;;;;;;;;;;;;;;;-144.99;94.04;52244.28;5017203;28;19977;-78
2023/06/02 06:01:13;;;;;;;;;;;;;;;-144.99;94.73;52250.38;5013233;28;20048;-74
2023/06/02 06:03:39;;;;;;;;;;;;;;;-144.99;91.56;52240.19;5024916;28;19945;-82
2023/06/02 06:06:08;;;;;;;;;;;;;;;-144.99;89.92;52244.28;5015769;28;20377;-75
2023/06/02 06:08:34;;;;;;;;;;;;;;;-144.99;89.40;52248.34;5025705;28;19929;-72
2023/06/02 06:11:01;;;;;;;;;;;;;;;-144.99;88.97;52242.22;5019848;28;20015;-72
2023/06/02 06:13:27;;;;;;;;;;;;;;;-144.99;88.84;52248.34;5025183;28;19929;-74
2023/06/02 06:15:55;;;;;;;;;;;;;;;-144.99;88.67;52264.66;5024180;28;20206;-77
2023/06/02 06:18:22;;;;;;;;;;;;;;;-144.99;88.83;52254.47;5022441;28;19933;-77
2023/06/02 06:20:48;;;;;;;;;;;;;;;-144.99;88.04;52232.03;5011944;28;20358;-75
2023/06/02 06:23:15;;;;;;;;;;;;;;;-144.99;89.20;52219.81;5020267;28;19940;-73
2023/06/02 06:25:41;;;;;;;;;;;;;;;-144.99;90.23;52240.19;5008869;28;20404;-74
2023/06/02 06:28:08;;;;;;;;;;;;;;;-144.99;89.32;52246.31;5017132;28;19939;-76
2023/06/02 06:30:35;;;;;;;;;;;;;;;-144.99;89.97;52234.09;5021097;28;19933;-73
2023/06/02 06:33:03;;;;;;;;;;;;;;;-144.99;90.30;52236.13;5016523;28;19929;-76
2023/06/02 06:35:29;;;;;;;;;;;;;;;-144.99;88.27;52258.53;5012215;28;20281;-75
2023/06/02 06:37:56;;;;;;;;;;;;;;;-144.99;87.43;52203.50;5014235;28;20060;-74
2023/06/02 06:40:23;;;;;;;;;;;;;;;-144.99;89.21;52234.09;5013510;28;20036;-72
2023/06/02 06:42:49;;;;;;;;;;;;;;;-144.99;89.93;52246.31;5019014;28;20004;-77
2023/06/02 06:45:16;;;;;;;;;;;;;;;-144.99;89.35;52244.28;5011821;28;19936;-77
2023/06/02 06:47:42;;;;;;;;;;;;;;;-144.99;88.32;52280.97;5020536;28;19932;-73
2023/06/02 06:50:13;;;;;;;;;;;;;;;-144.99;88.48;52250.38;5020030;28;19929;-74
2023/06/02 06:52:39;;;;;;;;;;;;;;;-144.99;89.05;52276.88;5025161;28;19925;-73
2023/06/02 06:55:06;;;;;;;;;;;;;;;-144.99;89.69;52238.16;5030277;28;19935;-79
2023/06/02 06:57:33;;;;;;;;;;;;;;;-144.99;89.74;52258.53;5027171;28;20276;-76
2023/06/02 06:59:59;;;;;;;;;;;;;;;-144.99;89.53;52234.09;4671883;28;9999635;-74
2023/06/02 07:02:26;;;;;;;;;;;;;;;-144.99;89.25;52270.78;5023125;28;19933;-80
2023/06/02 07:04:53;;;;;;;;;;;;;;;-144.99;89.20;52248.34;5025149;28;19948;-76
2023/06/02 07:07:20;;;;;;;;;;;;;;;-144.99;88.41;52293.19;5014165;28;20257;-77
2023/06/02 07:09:48;;;;;;;;;;;;;;;-144.99;88.93;52252.44;5021851;28;19925;-79
2023/06/02 07:12:14;;;;;;;;;;;;;;;-144.99;88.63;52276.88;5018518;28;20024;-76
2023/06/02 07:14:41;;;;;;;;;;;;;;;-144.99;88.62;52232.03;5018570;28;19933;-77
2023/06/02 07:17:08;;;;;;;;;;;;;;;-144.99;87.07;52244.28;5019720;28;20020;-76
2023/06/02 07:19:35;;;;;;;;;;;;;;;-144.99;87.90;52256.50;5022543;28;19929;-74
2023/06/02 07:22:01;;;;;;;;;;;;;;;-144.99;87.60;52258.53;5023703;28;19929;-75
2023/06/02 07:24:29;;;;;;;;;;;;;;;-144.99;84.93;52246.31;5014998;28;20243;-75
2023/06/02 07:26:57;;;;;;;;;;;;;;;-144.99;85.03;52256.50;5015785;28;19936;-77
2023/06/02 07:29:24;;;;;;;;;;;;;;;-144.99;86.58;52244.28;5014327;28;19929;-74
2023/06/02 07:31:50;;;;;;;;;;;;;;;-144.99;86.53;52207.59;5021743;28;19929;-77
2023/06/02 07:34:17;;;;;;;;;;;;;;;-144.99;86.87;52256.50;5017297;28;19929;-77
2023/06/02 07:36:44;;;;;;;;;;;;;;;-144.99;86.75;52246.31;5015191;28;20395;-72
2023/06/02 07:39:11;;;;;;;;;;;;;;;-144.99;86.68;52258.53;5021235;28;19933;-80
2023/06/02 07:41:39;;;;;;;;;;;;;;;-144.99;86.26;52252.44;5026015;28;19925;-78
2023/06/02 07:44:06;;;;;;;;;;;;;;;-144.99;86.00;52244.28;5023402;28;19925;-79
2023/06/02 07:46:32;;;;;;;;;;;;;;;-144.99;85.15;52219.81;5024335;28;19936;-77
2023/06/02 07:49:00;;;;;;;;;;;;;;;-144.99;84.86;52268.72;5016728;28;19945;-78
2023/06/02 07:51:27;;;;;;;;;;;;;;;-144.99;85.04;52223.88;5016259;28;19929;-80
2023/06/02 07:53:53;;;;;;;;;;;;;;;-144.99;85.52;52199.44;5024162;28;20337;-78
2023/06/02 07:56:20;;;;;;;;;;;;;;;-144.99;84.58;52252.44;5016385;28;19929;-76
2023/06/02 07:58:48;;;;;;;;;;;;;;;-144.99;83.82;52240.19;5016849;28;20069;-80
2023/06/02 08:01:15;;;;;;;;;;;;;;;-144.99;82.30;52240.19;5027847;28;19936;-79
2023/06/02 08:03:41;;;;;;;;;;;;;;;-144.99;81.90;52217.78;5025172;28;19991;-76
2023/06/02 08:06:08;;;;;;;;;;;;;;;-144.99;81.98;52250.38;5023542;28;19940;-78
2023/06/02 08:08:35;;;;;;;;;;;;;;;-144.99;81.95;52272.81;5034750;28;19925;-78
2023/06/02 08:11:01;;;;;;;;;;;;;;;-144.99;81.98;52223.88;5024308;28;19932;-78
2023/06/02 08:13:28;;;;;;;;;;;;;;;-144.99;82.06;52225.94;5021578;28;19929;-78
2023/06/02 08:15:56;;;;;;;;;;;;;;;-144.99;82.30;52166.81;5015923;28;19941;-78
2023/06/02 08:18:22;;;;;;;;;;;;;;;-144.99;81.01;52219.81;5025458;28;19929;-77
2023/06/02 08:20:49;;;;;;;;;;;;;;;-144.99;80.55;52199.44;5018077;28;20597;-80
2023/06/02 08:23:17;;;;;;;;;;;;;;;-144.99;78.08;52164.78;5018610;28;19955;-78
2023/06/02 08:25:44;;;;;;;;;;;;;;;-144.99;76.49;52187.19;5024803;28;19960;-79
2023/06/02 08:28:11;;;;;;;;;;;;;;;-144.99;76.50;52170.91;5012607;28;19983;-78
2023/06/02 08:30:38;;;;;;;;;;;;;;;-144.99;75.72;52179.06;5029529;28;20400;-77
2023/06/02 08:33:08;;;;;;;;;;;;;;;-144.99;76.30;52177.00;5030694;28;19946;-75
2023/06/02 08:35:36;;;;;;;;;;;;;;;-144.99;75.06;52183.13;5029873;28;19964;-76
2023/06/02 08:38:03;;;;;;;;;;;;;;;-144.99;74.48;52211.66;5026057;28;19936;-75
2023/06/02 08:40:37;;;;;;;;;;;;;;;-144.99;74.28;52195.34;5029206;28;19997;-76
2023/06/02 08:43:04;;;;;;;;;;;;;;;-144.99;74.94;52236.13;5029131;28;19991;-77
2023/06/02 08:45:31;;;;;;;;;;;;;;;-144.99;74.64;52223.88;5020680;28;19992;-76
2023/06/02 08:47:58;;;;;;;;;;;;;;;-144.99;74.98;52203.50;5030682;28;20451;-78
2023/06/02 08:50:32;;;;;;;;;;;;;;;-144.99;74.84;52227.97;5027349;28;19929;-78
2023/06/02 08:53:03;;;;;;;;;;;;;;;-144.99;74.91;52197.41;5026172;28;19925;-79
2023/06/02 08:55:29;;;;;;;;;;;;;;;-144.99;75.01;52191.28;5027617;28;19977;-76
2023/06/02 08:57:56;;;;;;;;;;;;;;;-144.99;74.94;52199.44;5026279;28;20653;-78
2023/06/02 09:00:23;;;;;;;;;;;;;;;-144.99;74.60;52199.44;5029661;28;19929;-75
2023/06/02 09:02:50;;;;;;;;;;;;;;;-144.99;72.93;52191.28;5030939;28;19936;-77
2023/06/02 09:05:17;;;;;;;;;;;;;;;-144.99;71.87;52158.66;5027554;28;19925;-77
2023/06/02 09:07:45;;;;;;;;;;;;;;;-144.99;70.99;52154.59;5024598;28;20184;-77
2023/06/02 09:10:28;;;;;;;;;;;;;;;-144.99;71.31;52185.16;5030301;28;20417;-76
2023/06/02 09:12:54;;;;;;;;;;;;;;;-144.99;70.44;52126.06;5026706;28;19929;-75
2023/06/02 09:15:22;;;;;;;;;;;;;;;-144.99;70.40;52170.91;5029346;28;19987;-76
2023/06/02 09:17:48;;;;;;;;;;;;;;;-144.99;69.62;52187.19;5023331;28;19983;-75
2023/06/02 09:20:15;;;;;;;;;;;;;;;-144.99;70.09;52134.22;5019150;28;19930;-75
2023/06/02 09:22:55;;;;;;;;;;;;;;;-144.99;70.32;52174.97;5018589;28;19945;-75
2023/06/02 09:25:22;;;;;;;;;;;;;;;-144.99;69.82;52142.38;5020023;28;19933;-72
2023/06/02 09:27:52;;;;;;;;;;;;;;;-144.99;70.44;52162.75;5018993;28;19929;-76
2023/06/02 09:30:19;;;;;;;;;;;;;;;-144.99;69.79;52154.59;5022866;28;19928;-75
2023/06/02 09:32:52;;;;;;;;;;;;;;;-144.99;69.66;52162.75;5021410;28;19932;-75
2023/06/02 09:35:32;;;;;;;;;;;;;;;-144.99;69.05;52179.06;5025181;28;20049;-72
2023/06/02 09:38:00;;;;;;;;;;;;;;;-144.99;69.30;52177.00;5016349;28;19960;-72
2023/06/02 09:40:28;;;;;;;;;;;;;;;-144.99;68.95;52126.06;5010571;28;19932;-72
2023/06/02 09:42:55;;;;;;;;;;;;;;;-144.99;68.00;52158.66;5018994;28;19929;-74
2023/06/02 09:45:21;;;;;;;;;;;;;;;-144.99;67.64;52128.09;5022553;28;20028;-77
2023/06/02 09:47:48;;;;;;;;;;;;;;;-144.99;66.92;52109.75;5015985;28;19929;-72
2023/06/02 09:50:30;;;;;;;;;;;;;;;-144.99;67.02;52093.44;5024026;28;20326;-74
2023/06/02 09:53:05;;;;;;;;;;;;;;;-144.99;66.72;52128.09;5015590;28;19937;-80
2023/06/02 09:55:33;;;;;;;;;;;;;;;-144.99;66.45;52132.19;5019307;28;19925;-77
2023/06/02 09:57:59;;;;;;;;;;;;;;;-144.99;66.63;52166.81;5019285;28;19932;-76
2023/06/02 10:00:26;;;;;;;;;;;;;;;-144.99;66.76;52138.28;5018576;28;19952;-73
2023/06/02 10:02:53;;;;;;;;;;;;;;;-144.99;66.92;52146.44;5017576;28;19929;-76
2023/06/02 10:05:22;;;;;;;;;;;;;;;-144.99;66.43;52154.59;5022418;28;20024;-80
2023/06/02 10:07:53;;;;;;;;;;;;;;;-144.99;65.96;52174.97;5027216;28;19933;-77
2023/06/02 10:10:31;;;;;;;;;;;;;;;-144.99;65.89;52101.59;5025364;28;19956;-74
2023/06/02 10:13:04;;;;;;;;;;;;;;;-144.99;65.17;52119.94;5020329;28;19929;-75
2023/06/02 10:15:45;;;;;;;;;;;;;;;-144.99;65.02;52130.13;5027617;28;19925;-75
2023/06/02 10:18:30;;;;;;;;;;;;;;;-144.99;65.06;52154.59;5021041;28;19929;-74
2023/06/02 10:21:01;;;;;;;;;;;;;;;-144.99;64.64;52126.06;5027046;28;19933;-71
2023/06/02 10:23:36;;;;;;;;;;;;;;;-144.99;64.29;52093.44;5011174;28;20012;-73
2023/06/02 10:26:13;;;;;;;;;;;;;;;-144.99;64.22;52154.59;5021491;28;19929;-72
2023/06/02 10:28:40;;;;;;;;;;;;;;;-144.99;63.97;52136.25;5012756;28;19961;-73
2023/06/02 10:31:08;;;;;;;;;;;;;;;-144.99;63.26;52166.81;5016444;28;19936;-73
2023/06/02 10:33:44;;;;;;;;;;;;;;;-144.99;63.60;52148.47;5021359;28;20012;-75
2023/06/02 10:36:12;;;;;;;;;;;;;;;-144.99;63.98;52097.53;5021518;28;20008;-74
2023/06/02 10:38:38;;;;;;;;;;;;;;;-144.99;63.89;52166.81;5015330;28;20458;-73
2023/06/02 10:41:05;;;;;;;;;;;;;;;-144.99;63.84;52117.91;5024116;28;19929;-77
2023/06/02 10:43:34;;;;;;;;;;;;;;;-144.99;63.15;52134.22;5012752;28;19933;-76
2023/06/02 10:46:16;;;;;;;;;;;;;;;-144.99;62.90;52138.28;5023727;28;19929;-74
2023/06/02 10:48:43;;;;;;;;;;;;;;;-144.99;62.87;52105.69;5014585;28;19929;-75
2023/06/02 10:51:10;;;;;;;;;;;;;;;-144.99;63.09;52162.75;5022747;28;20385;-76
2023/06/02 10:53:51;;;;;;;;;;;;;;;-144.99;62.74;52156.63;5024709;28;19925;-77
2023/06/02 10:56:38;;;;;;;;;;;;;;;-144.99;62.72;52174.97;5018310;28;19936;-75
2023/06/02 10:59:07;;;;;;;;;;;;;;;-144.99;63.01;52121.97;4667273;28;9999711;-79
2023/06/02 11:04:28;;;;;;;;;;;;;;;-144.99;63.28;52179.06;5122776;27;20084;-68
2023/06/02 11:07:12;;;;;;;;;;;;;;;-144.99;62.60;52138.28;5109396;27;19935;-67
2023/06/02 11:09:42;;;;;;;;;;;;;;;-144.99;62.44;52185.16;4768617;27;10000283;-68
2023/06/02 11:12:09;;;;;;;;;;;;;;;-144.99;62.49;52126.06;5119028;27;19970;-67
2023/06/02 11:14:50;;;;;;;;;;;;;;;-144.99;62.92;52162.75;5115043;27;19935;-67
2023/06/02 11:17:29;;;;;;;;;;;;;;;-144.99;62.08;52136.25;5114876;27;19940;-68
2023/06/02 11:19:58;;;;;;;;;;;;;;;-144.99;61.90;52154.59;5115912;27;19931;-67
2023/06/02 11:22:25;;;;;;;;;;;;;;;-144.99;61.04;52111.78;5120712;27;20015;-67
2023/06/02 11:24:52;;;;;;;;;;;;;;;-144.99;61.05;52101.59;5118910;27;19927;-68
2023/06/02 11:27:19;;;;;;;;;;;;;;;-144.99;60.50;52056.78;5117622;27;19935;-67
2023/06/02 11:29:45;;;;;;;;;;;;;;;-144.99;59.96;52052.69;5116106;27;20479;-67
2023/06/02 11:32:14;;;;;;;;;;;;;;;-144.99;59.94;52134.22;5122184;28;19928;-69
2023/06/02 11:34:41;;;;;;;;;;;;;;;-144.99;59.02;52134.22;5127599;27;19989;-68
2023/06/02 11:37:13;;;;;;;;;;;;;;;-144.99;59.57;52136.25;5114291;27;19932;-67
2023/06/02 11:39:49;;;;;;;;;;;;;;;-144.99;59.38;52093.44;5120011;27;20323;-69
2023/06/02 11:42:15;;;;;;;;;;;;;;;-144.99;59.92;52126.06;5118205;27;19928;-68
2023/06/02 11:44:47;;;;;;;;;;;;;;;-144.99;59.24;52103.66;5116641;27;19927;-68
2023/06/02 11:47:17;;;;;;;;;;;;;;;-144.99;58.99;52130.13;5118436;27;19928;-68
2023/06/02 11:49:44;;;;;;;;;;;;;;;-144.99;58.50;52138.28;5113015;27;19950;-68
2023/06/02 11:52:11;;;;;;;;;;;;;;;-144.99;58.91;52121.97;5118799;28;20049;-68
2023/06/02 11:54:50;;;;;;;;;;;;;;;-144.99;59.39;52124.03;5112375;27;19934;-67
2023/06/02 11:57:25;;;;;;;;;;;;;;;-144.99;59.75;52126.06;5112939;27;19935;-67
2023/06/02 12:00:09;;;;;;;;;;;;;;;-144.99;59.29;52146.44;5118328;28;20315;-67
2023/06/02 12:02:36;;;;;;;;;;;;;;;-144.99;59.70;52146.44;5112828;27;20459;-67
2023/06/02 12:05:03;;;;;;;;;;;;;;;-144.99;59.60;52154.59;5114799;27;19959;-68
2023/06/02 12:07:30;;;;;;;;;;;;;;;-144.99;59.20;52154.59;5119620;27;20026;-67
2023/06/02 12:09:58;;;;;;;;;;;;;;;-144.99;58.94;52179.06;5112566;27;19935;-67
2023/06/02 12:12:24;;;;;;;;;;;;;;;-144.99;58.95;52140.31;5120255;27;19928;-67
2023/06/02 12:14:51;;;;;;;;;;;;;;;-144.99;58.71;52134.22;5117815;27;19931;-68
2023/06/02 12:17:18;;;;;;;;;;;;;;;-144.99;58.93;52183.13;5111754;28;20217;-67
2023/06/02 12:19:44;;;;;;;;;;;;;;;-144.99;59.35;52130.13;5099462;28;19935;-67
2023/06/02 12:22:14;;;;;;;;;;;;;;;-144.99;59.42;52121.97;5105894;28;19938;-68
2023/06/02 12:24:42;;;;;;;;;;;;;;;-144.99;58.83;52089.38;5099975;28;19957;-68
2023/06/02 12:27:10;;;;;;;;;;;;;;;-144.99;58.69;52097.53;5105082;28;19927;-71
2023/06/02 12:29:37;;;;;;;;;;;;;;;-144.99;58.60;52121.97;5097205;28;19934;-67
2023/06/02 12:32:05;;;;;;;;;;;;;;;-144.99;58.18;52109.75;5098584;28;20019;-68